createdAt,value
2024-04-21T00:01:33.719Z,0.95
2024-04-21T00:04:00.876Z,0.90
2024-04-21T00:06:29.202Z,0.90
2024-04-21T00:08:56.146Z,0.93
2024-04-21T00:11:23.193Z,0.90
2024-04-21T00:13:50.230Z,1.00
2024-04-21T00:16:17.374Z,0.82
2024-04-21T00:18:44.446Z,0.80
2024-04-21T00:21:13.390Z,0.90
2024-04-21T00:23:40.363Z,0.77
2024-04-21T00:26:07.402Z,0.70
2024-04-21T00:28:34.378Z,1.00
2024-04-21T00:31:01.407Z,0.90
2024-04-21T00:33:28.458Z,0.90
2024-04-21T00:35:55.478Z,0.98
2024-04-21T00:38:22.425Z,1.00
2024-04-21T00:40:49.438Z,0.90
2024-04-21T00:43:16.587Z,1.00
2024-04-21T00:45:47.690Z,1.20
2024-04-21T00:48:15.376Z,1.30
2024-04-21T00:50:47.844Z,1.10
2024-04-21T00:53:18.810Z,0.95
2024-04-21T00:55:46.318Z,1.05
2024-04-21T00:58:15.817Z,1.10
2024-04-21T01:00:43.585Z,1.02
2024-04-21T01:03:10.709Z,1.10
2024-04-21T01:05:37.698Z,1.00
2024-04-21T01:08:07.148Z,1.20
2024-04-21T01:10:34.169Z,1.30
2024-04-21T01:13:01.199Z,1.20
2024-04-21T01:15:28.182Z,1.17
2024-04-21T01:17:55.367Z,1.20
2024-04-21T01:20:22.797Z,1.02
2024-04-21T01:22:50.794Z,1.10
2024-04-21T01:25:18.442Z,1.33
2024-04-21T01:27:45.833Z,0.95
2024-04-21T01:30:12.935Z,1.20
2024-04-21T01:32:41.249Z,1.30
2024-04-21T01:35:08.454Z,1.20
2024-04-21T01:37:38.717Z,1.60
2024-04-21T01:40:07.546Z,1.60
2024-04-21T01:42:34.811Z,1.30
2024-04-21T01:45:01.867Z,1.33
2024-04-21T01:47:28.890Z,1.10
2024-04-21T01:49:55.883Z,1.25
2024-04-21T01:52:22.974Z,1.30
2024-04-21T01:54:49.981Z,1.20
2024-04-21T01:57:16.936Z,1.40
2024-04-21T01:59:44.063Z,1.40
2024-04-21T02:02:11.382Z,1.20
2024-04-21T02:04:38.668Z,1.20
2024-04-21T02:07:06.597Z,1.30
2024-04-21T02:09:34.695Z,1.00
2024-04-21T02:12:01.655Z,1.33
2024-04-21T02:14:28.628Z,1.10
2024-04-21T02:16:55.627Z,1.30
2024-04-21T02:19:25.128Z,1.30
2024-04-21T02:21:53.895Z,1.05
2024-04-21T02:24:21.944Z,1.08
2024-04-21T02:26:48.921Z,1.30
2024-04-21T02:29:15.896Z,1.17
2024-04-21T02:31:42.857Z,1.17
2024-04-21T02:34:09.944Z,1.10
2024-04-21T02:36:36.915Z,1.50
2024-04-21T02:39:04.516Z,1.17
2024-04-21T02:41:31.607Z,1.17
2024-04-21T02:43:58.575Z,1.10
2024-04-21T02:46:25.571Z,1.17
2024-04-21T02:48:52.632Z,1.13
2024-04-21T02:51:20.312Z,1.20
2024-04-21T02:53:47.370Z,1.38
2024-04-21T02:56:14.311Z,1.50
2024-04-21T02:58:41.292Z,1.15
2024-04-21T03:01:08.351Z,1.15
2024-04-21T03:03:35.336Z,1.00
2024-04-21T03:06:02.410Z,1.05
2024-04-21T03:08:29.473Z,1.20
2024-04-21T03:10:56.732Z,1.30
2024-04-21T03:13:23.805Z,1.10
2024-04-21T03:15:50.807Z,1.10
2024-04-21T03:18:18.081Z,1.17
2024-04-21T03:20:56.049Z,1.10
2024-04-21T03:23:24.168Z,1.20
2024-04-21T03:25:51.189Z,1.08
2024-04-21T03:28:18.345Z,1.30
2024-04-21T03:30:55.979Z,1.17
2024-04-21T03:33:23.170Z,1.08
2024-04-21T03:36:19.229Z,1.10
2024-04-21T03:38:46.196Z,1.52
2024-04-21T03:41:13.253Z,0.93
2024-04-21T03:43:41.010Z,1.00
2024-04-21T03:46:08.122Z,1.48
2024-04-21T03:48:35.513Z,1.20
2024-04-21T03:51:02.739Z,0.90
2024-04-21T03:53:29.725Z,1.10
2024-04-21T03:55:56.685Z,0.90
2024-04-21T03:58:23.855Z,0.90
2024-04-21T04:00:51.463Z,0.90
2024-04-21T04:03:19.043Z,1.27
2024-04-21T04:05:47.132Z,1.02
2024-04-21T04:08:14.469Z,0.85
2024-04-21T04:10:42.403Z,1.20
2024-04-21T04:13:09.803Z,1.00
2024-04-21T04:15:37.442Z,1.10
2024-04-21T04:18:04.711Z,1.00
2024-04-21T04:22:58.651Z,1.02
2024-04-21T04:25:25.631Z,0.85
2024-04-21T04:27:52.895Z,0.98
2024-04-21T04:30:19.913Z,0.90
2024-04-21T04:32:46.925Z,0.90
2024-04-21T04:35:14.269Z,0.82
2024-04-21T04:37:41.787Z,1.10
2024-04-21T04:40:09.257Z,0.80
2024-04-21T04:42:36.225Z,2.50
2024-04-21T04:45:03.365Z,2.60
2024-04-21T04:47:30.384Z,2.05
2024-04-21T04:49:57.374Z,1.40
2024-04-21T04:52:24.378Z,1.20
2024-04-21T04:54:51.374Z,1.20
2024-04-21T04:57:18.358Z,1.00
2024-04-21T04:59:45.349Z,1.10
2024-04-21T05:02:12.290Z,1.20
2024-04-21T05:04:39.401Z,1.10
2024-04-21T05:07:06.465Z,1.00
2024-04-21T05:09:33.438Z,0.93
2024-04-21T05:12:00.412Z,0.75
2024-04-21T05:14:27.896Z,1.30
2024-04-21T05:16:54.894Z,1.13
2024-04-21T05:19:21.938Z,0.95
2024-04-21T05:21:49.076Z,1.00
2024-04-21T05:24:16.133Z,1.15
2024-04-21T05:26:43.168Z,1.00
2024-04-21T05:29:10.145Z,1.00
2024-04-21T05:31:37.155Z,1.40
2024-04-21T05:34:04.123Z,0.98
2024-04-21T05:36:31.145Z,1.00
2024-04-21T05:38:58.145Z,1.13
2024-04-21T05:41:25.165Z,1.20
2024-04-21T05:43:52.131Z,1.13
2024-04-21T05:46:19.240Z,1.33
2024-04-21T05:48:46.281Z,1.90
2024-04-21T05:51:13.265Z,2.67
2024-04-21T05:53:40.213Z,3.95
2024-04-21T05:56:07.325Z,3.88
2024-04-21T05:58:34.303Z,3.10
2024-04-21T06:01:01.406Z,2.30
2024-04-21T06:03:28.451Z,2.10
2024-04-21T06:05:55.410Z,1.60
2024-04-21T06:08:22.425Z,1.40
2024-04-21T06:10:49.429Z,1.50
2024-04-21T06:13:16.448Z,1.30
2024-04-21T06:15:43.847Z,1.20
2024-04-21T06:18:10.900Z,1.20
2024-04-21T06:20:38.042Z,1.00
2024-04-21T06:23:05.162Z,1.27
2024-04-21T06:25:32.158Z,1.20
2024-04-21T06:27:59.169Z,1.20
2024-04-21T06:30:26.204Z,1.10
2024-04-21T06:32:53.220Z,1.08
2024-04-21T06:35:20.339Z,1.10
2024-04-21T06:37:47.339Z,1.10
2024-04-21T06:40:17.315Z,1.25
2024-04-21T06:42:44.805Z,1.35
2024-04-21T06:45:11.728Z,1.55
2024-04-21T06:47:38.848Z,2.20
2024-04-21T06:50:06.107Z,2.05
2024-04-21T06:52:33.112Z,2.08
2024-04-21T06:55:00.101Z,2.20
2024-04-21T06:57:27.142Z,1.80
2024-04-21T06:59:54.084Z,1.98
2024-04-21T07:02:21.096Z,1.60
2024-04-21T07:04:48.106Z,2.00
2024-04-21T07:07:15.205Z,1.88
2024-04-21T07:09:42.334Z,1.80
2024-04-21T07:12:09.517Z,1.80
2024-04-21T07:14:36.516Z,2.10
2024-04-21T07:17:04.832Z,1.95
2024-04-21T07:19:31.885Z,1.75
2024-04-21T07:22:00.045Z,2.15
2024-04-21T07:24:27.071Z,2.17
2024-04-21T07:26:55.166Z,2.92
2024-04-21T07:29:23.647Z,3.25
2024-04-21T07:31:50.727Z,3.63
2024-04-21T07:34:17.784Z,4.15
2024-04-21T07:36:44.774Z,6.25
2024-04-21T07:39:11.830Z,6.97
2024-04-21T07:41:40.963Z,8.05
2024-04-21T07:44:08.478Z,7.72
2024-04-21T07:46:35.524Z,7.93
2024-04-21T07:49:05.531Z,7.00
2024-04-21T07:51:32.529Z,6.88
2024-04-21T07:54:00.338Z,6.57
2024-04-21T07:56:27.439Z,6.15
2024-04-21T07:58:54.381Z,6.78
2024-04-21T08:01:21.412Z,5.93
2024-04-21T08:03:48.510Z,5.72
2024-04-21T08:06:15.582Z,4.00
2024-04-21T08:08:42.724Z,3.83
2024-04-21T08:11:09.852Z,3.33
2024-04-21T08:13:37.006Z,3.38
2024-04-21T08:16:04.905Z,3.00
2024-04-21T08:18:32.966Z,2.30
2024-04-21T08:21:00.993Z,2.30
2024-04-21T08:23:30.174Z,2.30
2024-04-21T08:26:01.335Z,1.83
2024-04-21T08:28:28.528Z,1.60
2024-04-21T08:30:55.641Z,1.98
2024-04-21T08:33:23.344Z,1.88
2024-04-21T08:35:57.604Z,1.80
2024-04-21T08:38:25.229Z,1.35
2024-04-21T08:40:52.682Z,1.02
2024-04-21T08:43:26.662Z,1.25
2024-04-21T08:45:57.115Z,1.30
2024-04-21T08:48:26.919Z,1.02
2024-04-21T08:50:54.366Z,1.13
2024-04-21T08:53:21.423Z,1.00
2024-04-21T08:55:50.493Z,0.90
2024-04-21T08:58:19.237Z,1.00
2024-04-21T09:00:47.316Z,1.35
2024-04-21T09:03:15.527Z,1.60
2024-04-21T09:05:42.808Z,1.50
2024-04-21T09:08:09.970Z,1.50
2024-04-21T09:10:37.497Z,1.45
2024-04-21T09:13:05.115Z,1.55
2024-04-21T09:15:32.236Z,1.60
2024-04-21T09:18:01.488Z,1.60
2024-04-21T09:20:29.294Z,1.50
2024-04-21T09:22:56.252Z,1.67
2024-04-21T09:25:24.872Z,1.30
2024-04-21T09:27:52.061Z,0.90
2024-04-21T09:30:19.865Z,1.10
2024-04-21T09:32:47.041Z,0.90
2024-04-21T09:35:14.076Z,1.67
2024-04-21T09:37:47.262Z,1.00
2024-04-21T09:40:16.511Z,1.17
2024-04-21T09:42:45.416Z,0.90
2024-04-21T09:45:14.662Z,0.90
2024-04-21T09:47:43.496Z,0.90
2024-04-21T09:50:12.571Z,1.13
2024-04-21T09:52:40.087Z,1.20
2024-04-21T09:55:07.461Z,1.00
2024-04-21T09:57:35.765Z,1.08
2024-04-21T10:00:04.632Z,0.90
2024-04-21T10:02:39.109Z,1.00
2024-04-21T10:05:10.222Z,1.10
2024-04-21T10:07:41.074Z,0.95
2024-04-21T10:10:19.599Z,1.02
2024-04-21T10:12:47.701Z,1.00
2024-04-21T10:15:21.512Z,0.80
2024-04-21T10:20:32.687Z,0.90
2024-04-21T10:23:06.398Z,0.50
2024-04-21T10:28:05.430Z,0.88
2024-04-21T10:30:32.622Z,0.93
2024-04-21T10:33:00.939Z,1.00
2024-04-21T10:35:38.883Z,0.95
2024-04-21T10:38:07.073Z,1.13
2024-04-21T10:40:55.482Z,1.30
2024-04-21T10:43:25.864Z,0.80
2024-04-21T10:46:02.285Z,0.80
2024-04-21T10:48:29.372Z,0.80
2024-04-21T10:50:57.724Z,0.82
2024-04-21T10:53:25.882Z,0.70
2024-04-21T10:55:57.573Z,0.70
2024-04-21T10:58:24.564Z,0.80
2024-04-21T11:00:51.711Z,0.90
2024-04-21T11:03:18.868Z,0.90
2024-04-21T11:06:02.319Z,0.77
2024-04-21T11:08:29.759Z,0.93
2024-04-21T11:10:57.812Z,1.02
2024-04-21T11:13:25.028Z,1.00
2024-04-21T11:15:52.261Z,1.15
2024-04-21T11:18:19.527Z,0.73
2024-04-21T11:20:48.257Z,0.70
2024-04-21T11:23:19.486Z,0.80
2024-04-21T11:25:51.945Z,0.70
2024-04-21T11:28:21.867Z,0.55
2024-04-21T11:30:49.274Z,0.88
2024-04-21T11:33:16.367Z,0.57
2024-04-21T11:35:43.657Z,0.77
2024-04-21T11:38:10.684Z,0.90
2024-04-21T11:40:40.732Z,0.60
2024-04-21T11:43:12.284Z,0.70
2024-04-21T11:45:43.609Z,0.70
2024-04-21T11:48:11.085Z,0.80
2024-04-21T11:50:39.327Z,0.70
2024-04-21T11:53:06.811Z,0.63
2024-04-21T11:55:34.486Z,0.77
2024-04-21T11:58:01.542Z,0.73
2024-04-21T12:00:28.572Z,0.70
2024-04-21T12:02:55.604Z,0.70
2024-04-21T12:05:22.709Z,0.60
2024-04-21T12:07:49.692Z,0.85
2024-04-21T12:10:16.863Z,0.68
2024-04-21T12:12:44.083Z,1.00
2024-04-21T12:15:11.028Z,0.85
2024-04-21T12:17:38.038Z,1.05
2024-04-21T12:20:05.268Z,1.05
2024-04-21T12:22:32.862Z,1.00
2024-04-21T12:24:59.865Z,0.85
2024-04-21T12:27:26.843Z,0.75
2024-04-21T12:29:53.784Z,0.90
2024-04-21T12:32:20.776Z,0.85
2024-04-21T12:34:47.730Z,1.00
2024-04-21T12:37:14.712Z,0.85
2024-04-21T12:39:41.669Z,1.10
2024-04-21T12:42:08.793Z,1.00
2024-04-21T12:44:35.809Z,1.33
2024-04-21T12:47:03.620Z,1.30
2024-04-21T12:49:30.713Z,1.05
2024-04-21T12:51:57.773Z,0.95
2024-04-21T12:54:26.293Z,0.95
2024-04-21T12:56:53.301Z,0.98
2024-04-21T12:59:20.258Z,1.17
2024-04-21T13:01:47.645Z,1.00
2024-04-21T13:04:14.995Z,1.10
2024-04-21T13:06:42.062Z,1.10
2024-04-21T13:09:09.090Z,1.00
2024-04-21T13:11:36.076Z,0.88
2024-04-21T13:14:03.028Z,0.90
2024-04-21T13:16:30.233Z,2.50
2024-04-21T13:18:57.264Z,35.58
2024-04-21T13:21:24.218Z,13.32
2024-04-21T13:23:52.376Z,8.63
2024-04-21T13:26:19.323Z,9.00
2024-04-21T13:28:46.274Z,3.22
2024-04-21T13:31:13.267Z,9.00
2024-04-21T13:33:40.227Z,48.70
2024-04-21T13:36:07.471Z,27.75
2024-04-21T13:38:34.456Z,3.92
2024-04-21T13:41:02.667Z,1.90
2024-04-21T13:43:30.038Z,2.85
2024-04-21T13:45:57.386Z,4.35
2024-04-21T13:48:24.369Z,3.58
2024-04-21T13:50:51.410Z,4.68
2024-04-21T13:53:18.775Z,9.88
2024-04-21T13:55:45.796Z,23.98
2024-04-21T13:58:12.871Z,14.43
2024-04-21T14:00:39.976Z,5.82
2024-04-21T14:03:07.153Z,5.43
2024-04-21T14:05:34.158Z,7.72
2024-04-21T14:08:01.124Z,22.65
2024-04-21T14:10:28.234Z,10.48
2024-04-21T14:12:55.292Z,3.80
2024-04-21T14:15:22.332Z,3.08
2024-04-21T14:17:49.354Z,1.65
2024-04-21T14:20:16.351Z,12.18
2024-04-21T14:22:43.524Z,26.30
2024-04-21T14:25:11.776Z,11.77
2024-04-21T14:27:38.718Z,4.22
2024-04-21T14:30:06.095Z,1.85
2024-04-21T14:32:37.219Z,1.60
2024-04-21T14:35:08.368Z,11.10
2024-04-21T14:37:35.446Z,22.48
2024-04-21T14:40:03.265Z,9.57
2024-04-21T14:42:30.314Z,11.38
2024-04-21T14:45:04.876Z,3.40
2024-04-21T14:47:34.552Z,2.85
2024-04-21T14:50:01.555Z,1.70
2024-04-21T14:52:34.709Z,1.67
2024-04-21T14:55:04.803Z,4.35
2024-04-21T14:57:31.808Z,2.50
2024-04-21T15:00:01.398Z,2.45
2024-04-21T15:02:28.429Z,1.98
2024-04-21T15:05:00.047Z,1.80
2024-04-21T15:07:27.630Z,1.58
2024-04-21T15:09:54.638Z,1.30
2024-04-21T15:12:23.022Z,1.15
2024-04-21T15:14:49.984Z,1.20
2024-04-21T15:17:16.969Z,1.17
2024-04-21T15:19:43.923Z,1.40
2024-04-21T15:22:10.941Z,1.20
2024-04-21T15:24:39.209Z,1.35
2024-04-21T15:27:06.832Z,1.70
2024-04-21T15:29:34.237Z,2.05
2024-04-21T15:32:01.235Z,1.95
2024-04-21T15:34:29.168Z,1.50
2024-04-21T15:36:56.205Z,1.60
2024-04-21T15:39:23.203Z,1.65
2024-04-21T15:41:50.155Z,1.45
2024-04-21T15:44:18.599Z,1.50
2024-04-21T15:46:45.899Z,1.50
2024-04-21T15:49:13.112Z,1.00
2024-04-21T15:51:40.111Z,1.75
2024-04-21T15:54:08.820Z,1.70
2024-04-21T15:56:36.182Z,5.78
2024-04-21T15:59:03.281Z,2.65
2024-04-21T16:01:30.416Z,1.50
2024-04-21T16:03:57.494Z,2.80
2024-04-21T16:06:24.781Z,1.70
2024-04-21T16:08:51.796Z,1.60
2024-04-21T16:11:18.752Z,0.98
2024-04-21T16:13:45.799Z,1.00
2024-04-21T16:16:12.917Z,1.00
2024-04-21T16:18:39.942Z,1.00
2024-04-21T16:21:07.016Z,0.90
2024-04-21T16:23:33.953Z,1.30
2024-04-21T16:26:00.931Z,1.50
2024-04-21T16:28:29.267Z,1.50
2024-04-21T16:30:56.284Z,1.50
2024-04-21T16:33:23.619Z,1.50
2024-04-21T16:35:50.897Z,1.30
2024-04-21T16:38:18.587Z,1.48
2024-04-21T16:40:46.187Z,1.70
2024-04-21T16:43:13.580Z,1.70
2024-04-21T16:45:45.797Z,1.75
2024-04-21T16:48:21.570Z,1.58
2024-04-21T16:50:49.281Z,1.67
2024-04-21T16:53:16.582Z,2.15
2024-04-21T16:55:45.331Z,2.30
2024-04-21T16:58:13.954Z,2.20
2024-04-21T17:00:41.274Z,2.60
2024-04-21T17:03:08.803Z,2.80
2024-04-21T17:05:36.092Z,2.55
2024-04-21T17:08:12.311Z,2.33
2024-04-21T17:10:39.638Z,1.67
2024-04-21T17:13:06.846Z,1.38
2024-04-21T17:15:33.836Z,1.02
2024-04-21T17:18:03.515Z,1.20
2024-04-21T17:20:30.996Z,1.10
2024-04-21T17:22:57.975Z,0.90
2024-04-21T17:25:24.988Z,1.20
2024-04-21T17:27:52.212Z,1.20
2024-04-21T17:30:20.351Z,1.00
2024-04-21T17:32:47.413Z,1.30
2024-04-21T17:35:14.456Z,1.00
2024-04-21T17:37:41.494Z,0.93
2024-04-21T17:40:09.360Z,0.95
2024-04-21T17:42:36.682Z,1.10
2024-04-21T17:45:04.672Z,1.20
2024-04-21T17:47:31.702Z,1.48
2024-04-21T17:49:58.675Z,18.17
2024-04-21T17:52:26.941Z,23.92
2024-04-21T17:55:04.035Z,16.27
2024-04-21T17:57:33.433Z,17.38
2024-04-21T18:00:00.500Z,14.82
2024-04-21T18:02:27.474Z,5.30
2024-04-21T18:04:54.475Z,9.07
2024-04-21T18:07:22.945Z,9.10
2024-04-21T18:09:50.028Z,13.52
2024-04-21T18:12:17.523Z,15.85
2024-04-21T18:14:44.490Z,6.30
2024-04-21T18:17:18.123Z,5.75
2024-04-21T18:19:52.895Z,4.30
2024-04-21T18:22:19.871Z,2.25
2024-04-21T18:24:48.015Z,2.05
2024-04-21T18:27:14.997Z,2.38
2024-04-21T18:29:41.976Z,2.10
2024-04-21T18:32:09.866Z,2.00
2024-04-21T18:34:37.148Z,1.40
2024-04-21T18:37:04.526Z,1.20
2024-04-21T18:39:31.632Z,1.20
2024-04-21T18:42:00.576Z,1.50
2024-04-21T18:44:27.563Z,1.30
2024-04-21T18:46:54.677Z,1.35
2024-04-21T18:49:22.364Z,1.52
2024-04-21T18:51:49.420Z,1.63
2024-04-21T18:54:16.358Z,1.52
2024-04-21T18:56:45.245Z,1.40
2024-04-21T18:59:12.224Z,1.27
2024-04-21T19:01:39.454Z,1.13
2024-04-21T19:04:06.527Z,1.20
2024-04-21T19:06:33.804Z,1.60
2024-04-21T19:09:00.753Z,1.60
2024-04-21T19:11:28.202Z,1.60
2024-04-21T19:13:55.652Z,1.52
2024-04-21T19:16:23.070Z,1.45
2024-04-21T19:18:52.032Z,1.40
2024-04-21T19:21:19.578Z,1.40
2024-04-21T19:23:46.851Z,1.30
2024-04-21T19:26:13.850Z,1.40
2024-04-21T19:28:42.010Z,1.33
2024-04-21T19:31:09.090Z,1.10
2024-04-21T19:33:36.640Z,1.30
2024-04-21T19:36:03.773Z,1.20
2024-04-21T19:38:30.706Z,1.30
2024-04-21T19:40:57.668Z,1.13
2024-04-21T19:43:24.688Z,1.40
2024-04-21T19:45:54.716Z,1.30
2024-04-21T19:48:23.666Z,1.20
2024-04-21T19:51:00.305Z,1.35
2024-04-21T19:53:30.295Z,1.15
2024-04-21T19:55:57.322Z,1.30
2024-04-21T19:58:24.412Z,1.27
2024-04-21T20:01:00.806Z,1.20
2024-04-21T20:03:28.032Z,1.60
2024-04-21T20:05:54.988Z,1.35
2024-04-21T20:08:21.943Z,1.20
2024-04-21T20:10:48.947Z,1.40
2024-04-21T20:13:15.956Z,1.38
2024-04-21T20:16:01.401Z,1.30
2024-04-21T20:18:41.403Z,1.30
2024-04-21T20:21:08.714Z,1.38
2024-04-21T20:23:35.871Z,3.72
2024-04-21T20:26:05.561Z,3.08
2024-04-21T20:28:32.710Z,6.63
2024-04-21T20:30:59.791Z,6.90
2024-04-21T20:33:26.823Z,3.40
2024-04-21T20:35:55.110Z,2.63
2024-04-21T20:38:22.041Z,2.25
2024-04-21T20:40:49.016Z,1.60
2024-04-21T20:43:16.040Z,1.60
2024-04-21T20:45:43.857Z,1.75
2024-04-21T20:48:11.138Z,1.10
2024-04-21T20:50:38.137Z,1.15
2024-04-21T20:53:05.506Z,1.40
2024-04-21T20:55:32.667Z,1.20
2024-04-21T20:58:00.842Z,1.30
2024-04-21T21:00:28.202Z,1.73
2024-04-21T21:02:55.180Z,1.40
2024-04-21T21:05:22.197Z,2.45
2024-04-21T21:07:49.133Z,1.73
2024-04-21T21:10:16.228Z,1.50
2024-04-21T21:12:44.766Z,1.63
2024-04-21T21:15:13.384Z,1.23
2024-04-21T21:17:40.443Z,2.30
2024-04-21T21:20:10.131Z,2.55
2024-04-21T21:22:37.177Z,2.17
2024-04-21T21:25:04.482Z,2.47
2024-04-21T21:27:31.598Z,1.55
2024-04-21T21:29:58.537Z,1.30
2024-04-21T21:32:25.553Z,1.80
2024-04-21T21:34:52.592Z,1.98
2024-04-21T21:37:20.796Z,1.90
2024-04-21T21:39:49.105Z,1.80
2024-04-21T21:42:16.349Z,2.00
2024-04-21T21:44:43.294Z,1.55
2024-04-21T21:47:10.251Z,1.15
2024-04-21T21:49:37.368Z,1.20
2024-04-21T21:52:04.603Z,1.02
2024-04-21T21:54:31.567Z,1.17
2024-04-21T21:56:58.642Z,0.95
2024-04-21T21:59:26.409Z,1.30
2024-04-21T22:01:53.443Z,1.10
2024-04-21T22:04:20.725Z,1.02
2024-04-21T22:06:47.751Z,1.15
2024-04-21T22:09:16.093Z,1.55
2024-04-21T22:11:43.253Z,1.25
2024-04-21T22:14:10.960Z,1.15
2024-04-21T22:16:37.976Z,1.17
2024-04-21T22:19:05.182Z,1.33
2024-04-21T22:21:32.163Z,1.10
2024-04-21T22:23:59.120Z,1.42
2024-04-21T22:26:26.905Z,1.00
2024-04-21T22:28:54.437Z,0.90
2024-04-21T22:31:21.424Z,0.90
2024-04-21T22:33:48.469Z,0.90
2024-04-21T22:36:15.431Z,1.30
2024-04-21T22:38:43.183Z,1.20
2024-04-21T22:41:10.207Z,1.02
2024-04-21T22:43:38.233Z,1.15
2024-04-21T22:46:07.328Z,1.10
2024-04-21T22:48:36.064Z,1.17
2024-04-21T22:51:04.258Z,1.05
2024-04-21T22:53:31.454Z,1.10
2024-04-21T22:55:58.747Z,1.20
2024-04-21T22:58:25.818Z,1.30
2024-04-21T23:00:52.905Z,1.27
2024-04-21T23:03:20.870Z,1.00
2024-04-21T23:05:47.851Z,1.10
2024-04-21T23:08:14.794Z,1.00
2024-04-21T23:10:41.911Z,1.52
2024-04-21T23:13:09.745Z,1.15
2024-04-21T23:15:37.295Z,1.00
2024-04-21T23:18:04.906Z,1.00
2024-04-21T23:20:31.942Z,1.20
2024-04-21T23:23:01.504Z,1.10
2024-04-21T23:25:28.537Z,0.90
2024-04-21T23:27:55.694Z,1.45
2024-04-21T23:30:22.734Z,1.35
2024-04-21T23:32:49.836Z,0.93
2024-04-21T23:35:16.987Z,1.20
2024-04-21T23:37:43.961Z,1.20
2024-04-21T23:40:11.663Z,1.10
2024-04-21T23:42:38.725Z,1.00
2024-04-21T23:45:06.268Z,1.02
2024-04-21T23:47:33.260Z,0.90
2024-04-21T23:50:00.331Z,0.90
2024-04-21T23:52:27.429Z,1.10
2024-04-21T23:54:54.415Z,1.15
2024-04-21T23:57:21.355Z,0.90
2024-04-21T23:59:48.307Z,0.82
